sensor_id;sensor_type;location;lat;lon;timestamp;pressure;altitude;pressure_sealevel;temperature;humidity
3096;BME280;1558;42.700;23.360;2023-06-01T00:01:02;95484.00;;;14.61;100.00
3096;BME280;1558;42.700;23.360;2023-06-01T00:03:31;95486.53;;;14.38;100.00
3096;BME280;1558;42.700;23.360;2023-06-01T00:06:00;95489.06;;;14.15;100.00
3096;BME280;1558;42.700;23.360;2023-06-01T00:08:28;95474.94;;;14.10;100.00
3096;BME280;1558;42.700;23.360;2023-06-01T00:10:56;95482.50;;;14.16;100.00
3096;BME280;1558;42.700;23.360;2023-06-01T00:13:24;95480.84;;;14.27;100.00
3096;BME280;1558;42.700;23.360;2023-06-01T00:15:52;95480.03;;;14.11;100.00
3096;BME280;1558;42.700;23.360;2023-06-01T00:18:20;95479.94;;;13.92;100.00
3096;BME280;1558;42.700;23.360;2023-06-01T00:20:48;95473.34;;;13.93;100.00
3096;BME280;1558;42.700;23.360;2023-06-01T00:23:19;95468.47;;;13.99;100.00
3096;BME280;1558;42.700;23.360;2023-06-01T00:25:48;95473.13;;;14.30;100.00
3096;BME280;1558;42.700;23.360;2023-06-01T00:28:16;95475.06;;;14.13;100.00
3096;BME280;1558;42.700;23.360;2023-06-01T00:30:44;95480.44;;;13.82;100.00
3096;BME280;1558;42.700;23.360;2023-06-01T00:33:12;95490.03;;;13.64;100.00
3096;BME280;1558;42.700;23.360;2023-06-01T00:35:40;95475.75;;;13.95;100.00
3096;BME280;1558;42.700;23.360;2023-06-01T00:38:09;95486.66;;;13.83;100.00
3096;BME280;1558;42.700;23.360;2023-06-01T00:40:38;95490.59;;;13.57;100.00
3096;BME280;1558;42.700;23.360;2023-06-01T00:43:06;95483.25;;;13.58;100.00
3096;BME280;1558;42.700;23.360;2023-06-01T00:45:34;95482.88;;;13.44;100.00
3096;BME280;1558;42.700;23.360;2023-06-01T00:48:04;95475.22;;;13.62;100.00
3096;BME280;1558;42.700;23.360;2023-06-01T00:50:33;95474.13;;;13.78;100.00
3096;BME280;1558;42.700;23.360;2023-06-01T00:53:02;95468.91;;;13.57;100.00
3096;BME280;1558;42.700;23.360;2023-06-01T00:55:30;95472.38;;;13.42;100.00
3096;BME280;1558;42.700;23.360;2023-06-01T00:58:00;95472.03;;;13.44;100.00
3096;BME280;1558;42.700;23.360;2023-06-01T01:00:29;95480.59;;;13.46;100.00
3096;BME280;1558;42.700;23.360;2023-06-01T01:02:57;95478.47;;;13.67;100.00
3096;BME280;1558;42.700;23.360;2023-06-01T01:05:27;95485.78;;;13.51;100.00
3096;BME280;1558;42.700;23.360;2023-06-01T01:08:00;95482.66;;;13.37;100.00
3096;BME280;1558;42.700;23.360;2023-06-01T01:10:33;95485.63;;;13.32;100.00
3096;BME280;1558;42.700;23.360;2023-06-01T01:13:10;95484.09;;;13.19;100.00
3096;BME280;1558;42.700;23.360;2023-06-01T01:15:45;95480.59;;;12.94;100.00
3096;BME280;1558;42.700;23.360;2023-06-01T01:18:16;95485.88;;;13.03;100.00
3096;BME280;1558;42.700;23.360;2023-06-01T01:20:52;95493.63;;;12.76;100.00
3096;BME280;1558;42.700;23.360;2023-06-01T01:23:38;95493.84;;;12.59;100.00
3096;BME280;1558;42.700;23.360;2023-06-01T01:26:24;95491.25;;;12.51;100.00
3096;BME280;1558;42.700;23.360;2023-06-01T01:29:00;95483.47;;;12.49;100.00
3096;BME280;1558;42.700;23.360;2023-06-01T01:31:32;95486.63;;;12.63;100.00
3096;BME280;1558;42.700;23.360;2023-06-01T01:34:03;95492.78;;;13.00;100.00
3096;BME280;1558;42.700;23.360;2023-06-01T01:36:31;95494.72;;;13.12;100.00
3096;BME280;1558;42.700;23.360;2023-06-01T01:38:59;95492.50;;;13.29;100.00
3096;BME280;1558;42.700;23.360;2023-06-01T01:41:29;95497.28;;;13.20;100.00
3096;BME280;1558;42.700;23.360;2023-06-01T01:43:59;95486.56;;;13.24;100.00
3096;BME280;1558;42.700;23.360;2023-06-01T01:46:28;95489.00;;;13.29;100.00
3096;BME280;1558;42.700;23.360;2023-06-01T01:49:07;95488.31;;;13.32;100.00
3096;BME280;1558;42.700;23.360;2023-06-01T01:51:42;95495.22;;;13.29;100.00
3096;BME280;1558;42.700;23.360;2023-06-01T01:54:12;95492.66;;;13.21;100.00
3096;BME280;1558;42.700;23.360;2023-06-01T01:56:41;95490.38;;;13.23;100.00
3096;BME280;1558;42.700;23.360;2023-06-01T01:59:12;95494.00;;;13.15;100.00
3096;BME280;1558;42.700;23.360;2023-06-01T02:01:40;95505.31;;;12.93;100.00
3096;BME280;1558;42.700;23.360;2023-06-01T02:04:11;95492.69;;;12.84;100.00
3096;BME280;1558;42.700;23.360;2023-06-01T02:06:39;95501.03;;;12.91;100.00
3096;BME280;1558;42.700;23.360;2023-06-01T02:09:07;95495.38;;;12.97;100.00
3096;BME280;1558;42.700;23.360;2023-06-01T02:11:35;95494.13;;;12.94;100.00
3096;BME280;1558;42.700;23.360;2023-06-01T02:14:04;95493.13;;;13.11;100.00
3096;BME280;1558;42.700;23.360;2023-06-01T02:16:33;95500.44;;;13.10;100.00
3096;BME280;1558;42.700;23.360;2023-06-01T02:19:02;95501.00;;;13.04;100.00
3096;BME280;1558;42.700;23.360;2023-06-01T02:21:31;95500.56;;;13.14;100.00
3096;BME280;1558;42.700;23.360;2023-06-01T02:23:59;95499.84;;;13.29;100.00
3096;BME280;1558;42.700;23.360;2023-06-01T02:26:31;95498.28;;;13.55;100.00
3096;BME280;1558;42.700;23.360;2023-06-01T02:28:59;95494.53;;;13.60;100.00
3096;BME280;1558;42.700;23.360;2023-06-01T02:31:29;95495.81;;;13.50;100.00
3096;BME280;1558;42.700;23.360;2023-06-01T02:33:58;95505.00;;;13.34;100.00
3096;BME280;1558;42.700;23.360;2023-06-01T02:36:27;95504.84;;;13.03;100.00
3096;BME280;1558;42.700;23.360;2023-06-01T02:38:55;95509.38;;;13.11;100.00
3096;BME280;1558;42.700;23.360;2023-06-01T02:41:24;95510.72;;;13.05;100.00
3096;BME280;1558;42.700;23.360;2023-06-01T02:43:52;95505.31;;;12.93;100.00
3096;BME280;1558;42.700;23.360;2023-06-01T02:46:20;95503.75;;;12.79;100.00
3096;BME280;1558;42.700;23.360;2023-06-01T02:48:48;95501.63;;;12.73;100.00
3096;BME280;1558;42.700;23.360;2023-06-01T02:51:19;95504.63;;;12.96;100.00
3096;BME280;1558;42.700;23.360;2023-06-01T02:53:47;95512.09;;;12.74;100.00
3096;BME280;1558;42.700;23.360;2023-06-01T02:56:15;95497.44;;;12.75;100.00
3096;BME280;1558;42.700;23.360;2023-06-01T02:58:43;95505.78;;;12.70;100.00
3096;BME280;1558;42.700;23.360;2023-06-01T03:01:11;95497.66;;;12.58;100.00
3096;BME280;1558;42.700;23.360;2023-06-01T03:03:42;95506.13;;;12.69;100.00
3096;BME280;1558;42.700;23.360;2023-06-01T03:06:11;95502.84;;;12.63;100.00
3096;BME280;1558;42.700;23.360;2023-06-01T03:08:41;95500.06;;;12.60;100.00
3096;BME280;1558;42.700;23.360;2023-06-01T03:11:09;95500.59;;;12.65;100.00
3096;BME280;1558;42.700;23.360;2023-06-01T03:13:37;95512.56;;;12.64;100.00
3096;BME280;1558;42.700;23.360;2023-06-01T03:16:05;95508.72;;;12.65;100.00
3096;BME280;1558;42.700;23.360;2023-06-01T03:18:33;95517.72;;;12.81;100.00
3096;BME280;1558;42.700;23.360;2023-06-01T03:21:05;95522.47;;;12.72;100.00
3096;BME280;1558;42.700;23.360;2023-06-01T03:23:33;95523.94;;;12.82;100.00
3096;BME280;1558;42.700;23.360;2023-06-01T03:26:02;95522.91;;;12.74;100.00
3096;BME280;1558;42.700;23.360;2023-06-01T03:28:31;95518.41;;;12.78;100.00
3096;BME280;1558;42.700;23.360;2023-06-01T03:30:59;95520.91;;;12.83;100.00
3096;BME280;1558;42.700;23.360;2023-06-01T03:33:28;95513.31;;;12.89;100.00
3096;BME280;1558;42.700;23.360;2023-06-01T03:35:56;95507.53;;;13.03;100.00
3096;BME280;1558;42.700;23.360;2023-06-01T03:38:25;95516.03;;;13.13;100.00
3096;BME280;1558;42.700;23.360;2023-06-01T03:40:53;95514.19;;;13.17;100.00
3096;BME280;1558;42.700;23.360;2023-06-01T03:43:22;95519.81;;;13.24;100.00
3096;BME280;1558;42.700;23.360;2023-06-01T03:45:51;95519.94;;;13.28;100.00
3096;BME280;1558;42.700;23.360;2023-06-01T03:48:19;95522.00;;;13.19;100.00
3096;BME280;1558;42.700;23.360;2023-06-01T03:50:47;95525.25;;;13.24;100.00
3096;BME280;1558;42.700;23.360;2023-06-01T03:53:15;95530.56;;;13.21;100.00
3096;BME280;1558;42.700;23.360;2023-06-01T03:55:43;95524.47;;;13.24;100.00
3096;BME280;1558;42.700;23.360;2023-06-01T03:58:11;95518.38;;;13.15;100.00
3096;BME280;1558;42.700;23.360;2023-06-01T04:00:41;95519.53;;;13.14;100.00
3096;BME280;1558;42.700;23.360;2023-06-01T04:03:10;95529.69;;;13.05;100.00
3096;BME280;1558;42.700;23.360;2023-06-01T04:05:39;95528.09;;;12.91;100.00
3096;BME280;1558;42.700;23.360;2023-06-01T04:08:07;95517.28;;;12.91;100.00
3096;BME280;1558;42.700;23.360;2023-06-01T04:10:39;95526.53;;;12.90;100.00
3096;BME280;1558;42.700;23.360;2023-06-01T04:13:08;95532.50;;;13.08;100.00
3096;BME280;1558;42.700;23.360;2023-06-01T04:15:36;95527.41;;;13.19;100.00
3096;BME280;1558;42.700;23.360;2023-06-01T04:18:05;95527.94;;;13.24;100.00
3096;BME280;1558;42.700;23.360;2023-06-01T04:20:33;95526.72;;;13.22;100.00
3096;BME280;1558;42.700;23.360;2023-06-01T04:23:01;95534.16;;;13.25;100.00
3096;BME280;1558;42.700;23.360;2023-06-01T04:25:30;95533.38;;;13.24;100.00
3096;BME280;1558;42.700;23.360;2023-06-01T04:27:58;95532.03;;;13.30;100.00
3096;BME280;1558;42.700;23.360;2023-06-01T04:30:26;95534.81;;;13.34;100.00
3096;BME280;1558;42.700;23.360;2023-06-01T04:32:54;95537.06;;;13.44;100.00
3096;BME280;1558;42.700;23.360;2023-06-01T04:35:24;95538.41;;;13.50;100.00
3096;BME280;1558;42.700;23.360;2023-06-01T04:37:52;95536.25;;;13.43;100.00
3096;BME280;1558;42.700;23.360;2023-06-01T04:40:20;95542.59;;;13.47;100.00
3096;BME280;1558;42.700;23.360;2023-06-01T04:42:48;95541.28;;;13.69;100.00
3096;BME280;1558;42.700;23.360;2023-06-01T04:45:18;95538.16;;;13.83;100.00
3096;BME280;1558;42.700;23.360;2023-06-01T04:47:46;95536.69;;;13.85;100.00
3096;BME280;1558;42.700;23.360;2023-06-01T04:50:15;95542.75;;;13.94;100.00
3096;BME280;1558;42.700;23.360;2023-06-01T04:52:45;95544.72;;;14.09;100.00
3096;BME280;1558;42.700;23.360;2023-06-01T04:55:15;95551.50;;;14.03;100.00
3096;BME280;1558;42.700;23.360;2023-06-01T04:57:43;95542.31;;;13.92;100.00
3096;BME280;1558;42.700;23.360;2023-06-01T05:00:13;95545.69;;;13.89;100.00
3096;BME280;1558;42.700;23.360;2023-06-01T05:02:45;95553.59;;;13.94;100.00
3096;BME280;1558;42.700;23.360;2023-06-01T05:05:15;95548.25;;;13.98;100.00
3096;BME280;1558;42.700;23.360;2023-06-01T05:07:45;95561.75;;;14.10;100.00
3096;BME280;1558;42.700;23.360;2023-06-01T05:10:13;95554.75;;;14.37;100.00
3096;BME280;1558;42.700;23.360;2023-06-01T05:12:41;95553.50;;;14.81;100.00
3096;BME280;1558;42.700;23.360;2023-06-01T05:15:09;95557.03;;;14.66;100.00
3096;BME280;1558;42.700;23.360;2023-06-01T05:17:38;95554.59;;;14.61;100.00
3096;BME280;1558;42.700;23.360;2023-06-01T05:20:08;95558.50;;;14.79;100.00
3096;BME280;1558;42.700;23.360;2023-06-01T05:22:38;95557.56;;;14.87;100.00
3096;BME280;1558;42.700;23.360;2023-06-01T05:25:08;95556.94;;;15.09;100.00
3096;BME280;1558;42.700;23.360;2023-06-01T05:27:37;95553.13;;;15.14;100.00
3096;BME280;1558;42.700;23.360;2023-06-01T05:30:06;95561.69;;;15.31;100.00
3096;BME280;1558;42.700;23.360;2023-06-01T05:32:35;95543.06;;;14.99;100.00
3096;BME280;1558;42.700;23.360;2023-06-01T05:35:04;95550.09;;;14.84;100.00
3096;BME280;1558;42.700;23.360;2023-06-01T05:37:32;95547.53;;;15.07;100.00
3096;BME280;1558;42.700;23.360;2023-06-01T05:40:01;95543.44;;;15.32;100.00
3096;BME280;1558;42.700;23.360;2023-06-01T05:42:34;95546.09;;;15.28;100.00
3096;BME280;1558;42.700;23.360;2023-06-01T05:45:03;95545.75;;;15.14;100.00
3096;BME280;1558;42.700;23.360;2023-06-01T05:47:31;95548.66;;;15.21;100.00
3096;BME280;1558;42.700;23.360;2023-06-01T05:50:00;95551.69;;;15.35;100.00
3096;BME280;1558;42.700;23.360;2023-06-01T05:52:28;95554.75;;;15.69;100.00
3096;BME280;1558;42.700;23.360;2023-06-01T05:54:56;95558.19;;;15.85;100.00
3096;BME280;1558;42.700;23.360;2023-06-01T05:57:24;95556.44;;;15.57;100.00
3096;BME280;1558;42.700;23.360;2023-06-01T05:59:54;95553.59;;;15.50;100.00
3096;BME280;1558;42.700;23.360;2023-06-01T06:02:22;95560.63;;;15.51;100.00
3096;BME280;1558;42.700;23.360;2023-06-01T06:04:50;95549.88;;;15.58;100.00
3096;BME280;1558;42.700;23.360;2023-06-01T06:07:20;95553.59;;;15.89;100.00
3096;BME280;1558;42.700;23.360;2023-06-01T06:09:50;95544.69;;;16.30;100.00
3096;BME280;1558;42.700;23.360;2023-06-01T06:12:18;95542.63;;;16.46;100.00
3096;BME280;1558;42.700;23.360;2023-06-01T06:14:46;95557.28;;;16.19;100.00
3096;BME280;1558;42.700;23.360;2023-06-01T06:17:16;95553.59;;;16.08;100.00
3096;BME280;1558;42.700;23.360;2023-06-01T06:19:45;95553.16;;;16.06;100.00
3096;BME280;1558;42.700;23.360;2023-06-01T06:22:14;95559.97;;;15.96;100.00
3096;BME280;1558;42.700;23.360;2023-06-01T06:24:42;95558.16;;;16.23;100.00
3096;BME280;1558;42.700;23.360;2023-06-01T06:27:10;95547.53;;;16.37;100.00
3096;BME280;1558;42.700;23.360;2023-06-01T06:29:39;95543.22;;;16.55;100.00
3096;BME280;1558;42.700;23.360;2023-06-01T06:32:09;95559.97;;;16.80;100.00
3096;BME280;1558;42.700;23.360;2023-06-01T06:34:38;95560.41;;;16.82;100.00
3096;BME280;1558;42.700;23.360;2023-06-01T06:37:07;95562.56;;;16.96;100.00
3096;BME280;1558;42.700;23.360;2023-06-01T06:39:38;95565.41;;;17.29;100.00
3096;BME280;1558;42.700;23.360;2023-06-01T06:42:06;95555.41;;;18.25;100.00
3096;BME280;1558;42.700;23.360;2023-06-01T06:44:34;95560.06;;;18.62;100.00
3096;BME280;1558;42.700;23.360;2023-06-01T06:47:03;95561.00;;;18.40;100.00
3096;BME280;1558;42.700;23.360;2023-06-01T06:49:32;95548.28;;;18.17;100.00
3096;BME280;1558;42.700;23.360;2023-06-01T06:52:02;95547.75;;;18.42;100.00
3096;BME280;1558;42.700;23.360;2023-06-01T06:54:31;95554.41;;;19.35;100.00
3096;BME280;1558;42.700;23.360;2023-06-01T06:57:02;95545.47;;;20.14;100.00
3096;BME280;1558;42.700;23.360;2023-06-01T06:59:31;95546.44;;;20.81;100.00
3096;BME280;1558;42.700;23.360;2023-06-01T07:01:59;95551.94;;;21.48;100.00
3096;BME280;1558;42.700;23.360;2023-06-01T07:04:28;95554.28;;;22.61;100.00
3096;BME280;1558;42.700;23.360;2023-06-01T07:06:56;95525.53;;;21.83;100.00
3096;BME280;1558;42.700;23.360;2023-06-01T07:09:25;95547.22;;;21.03;100.00
3096;BME280;1558;42.700;23.360;2023-06-01T07:11:53;95548.72;;;21.71;100.00
3096;BME280;1558;42.700;23.360;2023-06-01T07:14:24;95544.50;;;22.53;100.00
3096;BME280;1558;42.700;23.360;2023-06-01T07:16:52;95542.63;;;22.98;100.00
3096;BME280;1558;42.700;23.360;2023-06-01T07:19:20;95545.34;;;23.53;100.00
3096;BME280;1558;42.700;23.360;2023-06-01T07:21:48;95544.28;;;23.77;100.00
3096;BME280;1558;42.700;23.360;2023-06-01T07:24:17;95547.44;;;23.76;100.00
3096;BME280;1558;42.700;23.360;2023-06-01T07:26:47;95530.06;;;22.97;100.00
3096;BME280;1558;42.700;23.360;2023-06-01T07:29:17;95519.91;;;22.90;100.00
3096;BME280;1558;42.700;23.360;2023-06-01T07:31:45;95517.09;;;23.42;100.00
3096;BME280;1558;42.700;23.360;2023-06-01T07:34:14;95516.78;;;23.36;100.00
3096;BME280;1558;42.700;23.360;2023-06-01T07:36:42;95512.34;;;23.46;100.00
3096;BME280;1558;42.700;23.360;2023-06-01T07:39:12;95498.56;;;23.05;100.00
3096;BME280;1558;42.700;23.360;2023-06-01T07:41:43;95499.88;;;23.31;100.00
3096;BME280;1558;42.700;23.360;2023-06-01T07:44:15;95499.94;;;23.24;100.00
3096;BME280;1558;42.700;23.360;2023-06-01T07:46:45;95497.44;;;22.96;100.00
3096;BME280;1558;42.700;23.360;2023-06-01T07:49:13;95495.38;;;23.10;100.00
3096;BME280;1558;42.700;23.360;2023-06-01T07:51:42;95490.66;;;23.07;100.00
3096;BME280;1558;42.700;23.360;2023-06-01T07:54:10;95490.97;;;23.16;100.00
3096;BME280;1558;42.700;23.360;2023-06-01T07:56:38;95492.91;;;23.19;100.00
3096;BME280;1558;42.700;23.360;2023-06-01T07:59:06;95480.53;;;22.97;100.00
3096;BME280;1558;42.700;23.360;2023-06-01T08:01:35;95493.97;;;23.36;100.00
3096;BME280;1558;42.700;23.360;2023-06-01T08:04:04;95484.88;;;24.10;100.00
3096;BME280;1558;42.700;23.360;2023-06-01T08:06:32;95481.91;;;23.60;93.43
3096;BME280;1558;42.700;23.360;2023-06-01T08:09:02;95487.72;;;22.84;98.88
3096;BME280;1558;42.700;23.360;2023-06-01T08:11:33;95479.00;;;22.92;100.00
3096;BME280;1558;42.700;23.360;2023-06-01T08:14:02;95471.88;;;23.77;100.00
3096;BME280;1558;42.700;23.360;2023-06-01T08:16:35;95483.69;;;24.38;91.96
3096;BME280;1558;42.700;23.360;2023-06-01T08:19:04;95487.06;;;24.75;90.58
3096;BME280;1558;42.700;23.360;2023-06-01T08:21:32;95477.03;;;24.62;85.79
3096;BME280;1558;42.700;23.360;2023-06-01T08:24:00;95478.84;;;24.99;84.57
3096;BME280;1558;42.700;23.360;2023-06-01T08:26:29;95480.41;;;24.76;79.38
3096;BME280;1558;42.700;23.360;2023-06-01T08:28:57;95459.03;;;24.27;81.41
3096;BME280;1558;42.700;23.360;2023-06-01T08:31:25;95462.31;;;24.45;82.53
3096;BME280;1558;42.700;23.360;2023-06-01T08:33:55;95467.28;;;24.84;82.18
3096;BME280;1558;42.700;23.360;2023-06-01T08:36:23;95460.59;;;25.05;77.16
3096;BME280;1558;42.700;23.360;2023-06-01T08:38:54;95453.78;;;25.32;78.53
3096;BME280;1558;42.700;23.360;2023-06-01T08:41:26;95407.81;;;25.22;74.31
3096;BME280;1558;42.700;23.360;2023-06-01T08:44:03;95458.31;;;24.50;76.13
3096;BME280;1558;42.700;23.360;2023-06-01T08:46:32;95459.31;;;24.36;76.97
3096;BME280;1558;42.700;23.360;2023-06-01T08:49:02;95445.97;;;24.31;79.32
3096;BME280;1558;42.700;23.360;2023-06-01T08:51:33;95439.81;;;24.73;77.04
3096;BME280;1558;42.700;23.360;2023-06-01T08:54:05;95447.34;;;25.39;74.74
3096;BME280;1558;42.700;23.360;2023-06-01T08:56:37;95442.88;;;26.07;71.21
3096;BME280;1558;42.700;23.360;2023-06-01T08:59:11;95425.16;;;26.57;69.19
3096;BME280;1558;42.700;23.360;2023-06-01T09:01:40;95434.56;;;26.95;68.27
3096;BME280;1558;42.700;23.360;2023-06-01T09:04:10;95430.97;;;27.11;68.43
3096;BME280;1558;42.700;23.360;2023-06-01T09:06:41;95427.09;;;27.08;65.47
3096;BME280;1558;42.700;23.360;2023-06-01T09:09:10;95424.25;;;26.96;63.46
3096;BME280;1558;42.700;23.360;2023-06-01T09:11:40;95423.06;;;26.29;66.09
3096;BME280;1558;42.700;23.360;2023-06-01T09:14:28;95428.19;;;27.11;66.36
3096;BME280;1558;42.700;23.360;2023-06-01T09:16:57;95422.78;;;27.81;64.64
3096;BME280;1558;42.700;23.360;2023-06-01T09:19:40;95397.34;;;28.36;59.61
3096;BME280;1558;42.700;23.360;2023-06-01T09:22:08;95423.66;;;27.78;59.43
3096;BME280;1558;42.700;23.360;2023-06-01T09:24:36;95384.25;;;26.97;60.00
3096;BME280;1558;42.700;23.360;2023-06-01T09:27:05;95418.88;;;27.05;62.37
3096;BME280;1558;42.700;23.360;2023-06-01T09:29:33;95389.91;;;28.21;61.14
3096;BME280;1558;42.700;23.360;2023-06-01T09:32:01;95415.25;;;28.48;57.96
3096;BME280;1558;42.700;23.360;2023-06-01T09:34:31;95418.09;;;28.44;57.95
3096;BME280;1558;42.700;23.360;2023-06-01T09:37:05;95396.28;;;29.06;56.35
3096;BME280;1558;42.700;23.360;2023-06-01T09:39:34;95394.44;;;29.37;53.93
3096;BME280;1558;42.700;23.360;2023-06-01T09:42:03;95398.44;;;29.58;51.83
3096;BME280;1558;42.700;23.360;2023-06-01T09:44:34;95369.91;;;28.76;53.14
3096;BME280;1558;42.700;23.360;2023-06-01T09:47:05;95359.19;;;29.34;54.67
3096;BME280;1558;42.700;23.360;2023-06-01T09:49:39;95375.25;;;29.73;51.39
3096;BME280;1558;42.700;23.360;2023-06-01T09:52:09;95329.25;;;28.69;51.25
3096;BME280;1558;42.700;23.360;2023-06-01T09:54:40;95377.91;;;28.49;51.87
3096;BME280;1558;42.700;23.360;2023-06-01T09:57:09;95373.47;;;28.51;53.08
3096;BME280;1558;42.700;23.360;2023-06-01T09:59:40;95354.97;;;29.29;53.61
3096;BME280;1558;42.700;23.360;2023-06-01T10:02:13;95364.47;;;30.06;49.87
3096;BME280;1558;42.700;23.360;2023-06-01T10:04:48;95362.25;;;30.23;47.69
3096;BME280;1558;42.700;23.360;2023-06-01T10:07:18;95363.03;;;29.92;47.56
3096;BME280;1558;42.700;23.360;2023-06-01T10:09:49;95353.78;;;28.58;46.90
3096;BME280;1558;42.700;23.360;2023-06-01T10:12:19;95348.66;;;28.95;48.73
3096;BME280;1558;42.700;23.360;2023-06-01T10:14:47;95357.66;;;29.33;48.54
3096;BME280;1558;42.700;23.360;2023-06-01T10:17:17;95327.72;;;29.03;48.18
3096;BME280;1558;42.700;23.360;2023-06-01T10:19:47;95350.59;;;28.22;47.96
3096;BME280;1558;42.700;23.360;2023-06-01T10:22:16;95354.75;;;26.90;49.29
3096;BME280;1558;42.700;23.360;2023-06-01T10:24:47;95358.59;;;25.96;52.31
3096;BME280;1558;42.700;23.360;2023-06-01T10:27:20;95349.31;;;25.86;52.54
3096;BME280;1558;42.700;23.360;2023-06-01T10:29:53;95355.84;;;25.76;53.58
3096;BME280;1558;42.700;23.360;2023-06-01T10:32:40;95349.31;;;25.50;53.10
3096;BME280;1558;42.700;23.360;2023-06-01T10:38:30;95356.88;;;24.84;56.51
3096;BME280;1558;42.700;23.360;2023-06-01T10:41:24;95346.72;;;24.54;57.79
3096;BME280;1558;42.700;23.360;2023-06-01T10:43:54;95335.47;;;24.42;56.88
3096;BME280;1558;42.700;23.360;2023-06-01T10:46:40;95323.41;;;24.09;58.00
3096;BME280;1558;42.700;23.360;2023-06-01T10:49:11;95344.16;;;24.17;56.31
3096;BME280;1558;42.700;23.360;2023-06-01T10:51:41;95335.41;;;23.95;54.06
3096;BME280;1558;42.700;23.360;2023-06-01T10:54:29;95337.22;;;23.79;53.47
3096;BME280;1558;42.700;23.360;2023-06-01T10:57:17;95344.47;;;23.66;52.20
3096;BME280;1558;42.700;23.360;2023-06-01T11:00:13;95341.16;;;23.78;52.19
3096;BME280;1558;42.700;23.360;2023-06-01T11:02:53;95328.16;;;23.51;52.44
3096;BME280;1558;42.700;23.360;2023-06-01T11:05:43;95324.00;;;23.67;54.67
3096;BME280;1558;42.700;23.360;2023-06-01T11:08:53;95312.91;;;23.74;55.45
3096;BME280;1558;42.700;23.360;2023-06-01T11:14:26;95313.13;;;25.61;54.51
3096;BME280;1558;42.700;23.360;2023-06-01T11:17:25;95312.50;;;25.89;52.97
3096;BME280;1558;42.700;23.360;2023-06-01T11:20:00;95312.84;;;24.97;53.08
3096;BME280;1558;42.700;23.360;2023-06-01T11:22:38;95305.56;;;24.40;53.46
3096;BME280;1558;42.700;23.360;2023-06-01T11:25:09;95304.44;;;24.14;53.38
3096;BME280;1558;42.700;23.360;2023-06-01T11:27:43;95297.41;;;24.10;54.12
3096;BME280;1558;42.700;23.360;2023-06-01T11:30:18;95291.25;;;24.26;54.08
3096;BME280;1558;42.700;23.360;2023-06-01T11:32:46;95299.47;;;24.02;51.34
3096;BME280;1558;42.700;23.360;2023-06-01T11:35:17;95306.81;;;23.86;50.51
3096;BME280;1558;42.700;23.360;2023-06-01T11:37:53;95309.81;;;23.41;48.41
3096;BME280;1558;42.700;23.360;2023-06-01T11:40:23;95304.38;;;23.01;49.88
3096;BME280;1558;42.700;23.360;2023-06-01T11:42:56;95324.97;;;22.85;52.48
3096;BME280;1558;42.700;23.360;2023-06-01T11:45:24;95333.63;;;22.40;53.53
3096;BME280;1558;42.700;23.360;2023-06-01T11:47:53;95332.38;;;22.03;56.68
3096;BME280;1558;42.700;23.360;2023-06-01T11:50:23;95359.69;;;21.59;59.92
3096;BME280;1558;42.700;23.360;2023-06-01T11:52:54;95356.78;;;20.97;64.56
3096;BME280;1558;42.700;23.360;2023-06-01T11:55:24;95349.81;;;20.50;69.65
3096;BME280;1558;42.700;23.360;2023-06-01T11:57:53;95325.16;;;20.01;73.32
3096;BME280;1558;42.700;23.360;2023-06-01T12:00:21;95286.00;;;19.51;79.53
3096;BME280;1558;42.700;23.360;2023-06-01T12:03:04;95359.13;;;19.57;83.60
3096;BME280;1558;42.700;23.360;2023-06-01T12:05:38;95348.34;;;19.03;95.19
3096;BME280;1558;42.700;23.360;2023-06-01T12:08:07;95355.56;;;18.71;100.00
3096;BME280;1558;42.700;23.360;2023-06-01T12:10:36;95327.41;;;18.60;100.00
3096;BME280;1558;42.700;23.360;2023-06-01T12:13:05;95326.97;;;18.51;100.00
3096;BME280;1558;42.700;23.360;2023-06-01T12:15:34;95336.41;;;18.64;100.00
3096;BME280;1558;42.700;23.360;2023-06-01T12:18:02;95319.63;;;18.62;100.00
3096;BME280;1558;42.700;23.360;2023-06-01T12:20:31;95320.38;;;18.55;100.00
3096;BME280;1558;42.700;23.360;2023-06-01T12:23:11;95316.09;;;18.58;96.34
3096;BME280;1558;42.700;23.360;2023-06-01T12:25:50;95260.25;;;18.52;96.06
3096;BME280;1558;42.700;23.360;2023-06-01T12:28:20;95305.31;;;18.89;89.26
3096;BME280;1558;42.700;23.360;2023-06-01T12:30:49;95283.78;;;18.81;91.26
3096;BME280;1558;42.700;23.360;2023-06-01T12:33:31;95307.94;;;18.65;96.77
3096;BME280;1558;42.700;23.360;2023-06-01T12:36:00;95290.72;;;17.55;100.00
3096;BME280;1558;42.700;23.360;2023-06-01T12:38:34;95290.63;;;15.74;100.00
3096;BME280;1558;42.700;23.360;2023-06-01T12:41:10;95295.66;;;15.07;100.00
3096;BME280;1558;42.700;23.360;2023-06-01T12:43:38;95308.53;;;14.91;100.00
3096;BME280;1558;42.700;23.360;2023-06-01T12:46:17;95311.94;;;15.07;100.00
3096;BME280;1558;42.700;23.360;2023-06-01T12:48:47;95327.66;;;15.17;100.00
3096;BME280;1558;42.700;23.360;2023-06-01T12:51:15;95318.34;;;15.37;100.00
3096;BME280;1558;42.700;23.360;2023-06-01T12:53:43;95320.88;;;15.69;100.00
3096;BME280;1558;42.700;23.360;2023-06-01T12:56:13;95321.34;;;15.97;100.00
3096;BME280;1558;42.700;23.360;2023-06-01T12:58:42;95313.41;;;16.11;100.00
3096;BME280;1558;42.700;23.360;2023-06-01T13:01:10;95316.94;;;16.15;100.00
3096;BME280;1558;42.700;23.360;2023-06-01T13:03:38;95310.09;;;16.24;100.00
3096;BME280;1558;42.700;23.360;2023-06-01T13:06:06;95310.47;;;16.23;100.00
3096;BME280;1558;42.700;23.360;2023-06-01T13:08:35;95307.53;;;16.35;100.00
3096;BME280;1558;42.700;23.360;2023-06-01T13:11:05;95299.63;;;16.53;100.00
3096;BME280;1558;42.700;23.360;2023-06-01T13:13:40;95294.75;;;16.65;100.00
3096;BME280;1558;42.700;23.360;2023-06-01T13:16:10;95293.72;;;16.77;100.00
3096;BME280;1558;42.700;23.360;2023-06-01T13:18:39;95286.09;;;16.89;100.00
3096;BME280;1558;42.700;23.360;2023-06-01T13:21:07;95287.00;;;17.01;100.00
3096;BME280;1558;42.700;23.360;2023-06-01T13:23:36;95282.34;;;17.01;100.00
3096;BME280;1558;42.700;23.360;2023-06-01T13:26:05;95291.53;;;16.89;100.00